sensor_id;sensor_type;location;lat;lon;timestamp;temperature;humidity
69543;SHT31;56762;49.494;11.768;2024-01-16T00:00:14;-0.18;83.46
69543;SHT31;56762;49.494;11.768;2024-01-16T00:02:42;-0.21;84.16
69543;SHT31;56762;49.494;11.768;2024-01-16T00:05:11;-0.13;83.37
69543;SHT31;56762;49.494;11.768;2024-01-16T00:07:40;-0.04;84.81
69543;SHT31;56762;49.494;11.768;2024-01-16T00:10:08;-0.07;83.88
69543;SHT31;56762;49.494;11.768;2024-01-16T00:12:36;0.00;83.58
69543;SHT31;56762;49.494;11.768;2024-01-16T00:15:05;0.00;83.72
69543;SHT31;56762;49.494;11.768;2024-01-16T00:17:32;-0.11;82.20
69543;SHT31;56762;49.494;11.768;2024-01-16T00:20:01;-0.18;82.91
69543;SHT31;56762;49.494;11.768;2024-01-16T00:22:31;-0.21;83.53
69543;SHT31;56762;49.494;11.768;2024-01-16T00:24:59;-0.28;83.18
69543;SHT31;56762;49.494;11.768;2024-01-16T00:27:27;-0.26;83.36
69543;SHT31;56762;49.494;11.768;2024-01-16T00:29:55;-0.24;84.04
69543;SHT31;56762;49.494;11.768;2024-01-16T00:32:22;-0.31;84.38
69543;SHT31;56762;49.494;11.768;2024-01-16T00:34:51;-0.25;85.95
69543;SHT31;56762;49.494;11.768;2024-01-16T00:37:19;-0.22;84.92
69543;SHT31;56762;49.494;11.768;2024-01-16T00:39:48;-0.25;86.03
69543;SHT31;56762;49.494;11.768;2024-01-16T00:42:16;-0.35;84.64
69543;SHT31;56762;49.494;11.768;2024-01-16T00:44:44;-0.32;86.03
69543;SHT31;56762;49.494;11.768;2024-01-16T00:47:12;-0.44;83.54
69543;SHT31;56762;49.494;11.768;2024-01-16T00:49:40;-0.44;85.31
69543;SHT31;56762;49.494;11.768;2024-01-16T00:52:08;-0.45;85.17
69543;SHT31;56762;49.494;11.768;2024-01-16T00:54:36;-0.46;84.35
69543;SHT31;56762;49.494;11.768;2024-01-16T00:57:05;-0.41;85.64
69543;SHT31;56762;49.494;11.768;2024-01-16T00:59:33;-0.34;84.59
69543;SHT31;56762;49.494;11.768;2024-01-16T01:02:01;-0.36;84.59
69543;SHT31;56762;49.494;11.768;2024-01-16T01:04:32;-0.35;84.58
69543;SHT31;56762;49.494;11.768;2024-01-16T01:07:00;-0.26;85.01
69543;SHT31;56762;49.494;11.768;2024-01-16T01:09:29;-0.31;84.01
69543;SHT31;56762;49.494;11.768;2024-01-16T01:11:56;-0.28;83.51
69543;SHT31;56762;49.494;11.768;2024-01-16T01:14:25;-0.39;84.57
69543;SHT31;56762;49.494;11.768;2024-01-16T01:16:56;-0.48;83.54
69543;SHT31;56762;49.494;11.768;2024-01-16T01:19:24;-0.61;83.83
69543;SHT31;56762;49.494;11.768;2024-01-16T01:21:51;-0.66;83.83
69543;SHT31;56762;49.494;11.768;2024-01-16T01:24:20;-0.73;83.77
69543;SHT31;56762;49.494;11.768;2024-01-16T01:26:47;-0.72;84.35
69543;SHT31;56762;49.494;11.768;2024-01-16T01:29:15;-0.66;84.47
69543;SHT31;56762;49.494;11.768;2024-01-16T01:31:46;-0.62;84.40
69543;SHT31;56762;49.494;11.768;2024-01-16T01:34:15;-0.61;84.08
69543;SHT31;56762;49.494;11.768;2024-01-16T01:36:43;-0.62;83.56
69543;SHT31;56762;49.494;11.768;2024-01-16T01:39:11;-0.61;83.61
69543;SHT31;56762;49.494;11.768;2024-01-16T01:41:39;-0.65;83.48
69543;SHT31;56762;49.494;11.768;2024-01-16T01:44:07;-0.63;84.20
69543;SHT31;56762;49.494;11.768;2024-01-16T01:46:42;-0.65;84.29
69543;SHT31;56762;49.494;11.768;2024-01-16T01:49:13;-0.69;83.20
69543;SHT31;56762;49.494;11.768;2024-01-16T01:51:42;-0.70;83.87
69543;SHT31;56762;49.494;11.768;2024-01-16T01:54:10;-0.76;83.72
69543;SHT31;56762;49.494;11.768;2024-01-16T01:56:39;-0.82;84.67
69543;SHT31;56762;49.494;11.768;2024-01-16T01:59:08;-0.86;84.02
69543;SHT31;56762;49.494;11.768;2024-01-16T02:01:35;-0.84;83.93
69543;SHT31;56762;49.494;11.768;2024-01-16T02:04:04;-0.84;83.85
69543;SHT31;56762;49.494;11.768;2024-01-16T02:06:34;-0.80;84.21
69543;SHT31;56762;49.494;11.768;2024-01-16T02:09:02;-0.86;83.81
69543;SHT31;56762;49.494;11.768;2024-01-16T02:11:33;-0.83;84.12
69543;SHT31;56762;49.494;11.768;2024-01-16T02:14:01;-0.86;84.62
69543;SHT31;56762;49.494;11.768;2024-01-16T02:16:35;-0.90;84.37
69543;SHT31;56762;49.494;11.768;2024-01-16T02:19:03;-0.93;84.86
69543;SHT31;56762;49.494;11.768;2024-01-16T02:21:36;-0.99;84.57
69543;SHT31;56762;49.494;11.768;2024-01-16T02:24:06;-0.97;84.96
69543;SHT31;56762;49.494;11.768;2024-01-16T02:26:36;-0.92;85.22
69543;SHT31;56762;49.494;11.768;2024-01-16T02:29:04;-0.86;85.65
69543;SHT31;56762;49.494;11.768;2024-01-16T02:31:32;-0.72;84.43
69543;SHT31;56762;49.494;11.768;2024-01-16T02:34:00;-0.72;85.44
69543;SHT31;56762;49.494;11.768;2024-01-16T02:36:30;-0.70;84.64
69543;SHT31;56762;49.494;11.768;2024-01-16T02:38:58;-0.75;84.79
69543;SHT31;56762;49.494;11.768;2024-01-16T02:41:28;-0.66;84.86
69543;SHT31;56762;49.494;11.768;2024-01-16T02:43:55;-0.75;84.12
69543;SHT31;56762;49.494;11.768;2024-01-16T02:46:23;-0.83;83.50
69543;SHT31;56762;49.494;11.768;2024-01-16T02:48:51;-0.75;84.23
69543;SHT31;56762;49.494;11.768;2024-01-16T02:51:19;-0.73;84.54
69543;SHT31;56762;49.494;11.768;2024-01-16T02:53:47;-0.65;84.75
69543;SHT31;56762;49.494;11.768;2024-01-16T02:56:15;-0.51;85.93
69543;SHT31;56762;49.494;11.768;2024-01-16T02:58:44;-0.49;83.57
69543;SHT31;56762;49.494;11.768;2024-01-16T03:01:13;-0.51;83.78
69543;SHT31;56762;49.494;11.768;2024-01-16T03:03:41;-0.53;83.93
69543;SHT31;56762;49.494;11.768;2024-01-16T03:06:09;-0.52;83.49
69543;SHT31;56762;49.494;11.768;2024-01-16T03:08:37;-0.46;84.20
69543;SHT31;56762;49.494;11.768;2024-01-16T03:11:05;-0.42;84.13
69543;SHT31;56762;49.494;11.768;2024-01-16T03:13:34;-0.41;83.85
69543;SHT31;56762;49.494;11.768;2024-01-16T03:16:07;-0.36;83.75
69543;SHT31;56762;49.494;11.768;2024-01-16T03:18:35;-0.31;82.58
69543;SHT31;56762;49.494;11.768;2024-01-16T03:21:03;-0.36;82.10
69543;SHT31;56762;49.494;11.768;2024-01-16T03:23:31;-0.38;82.78
69543;SHT31;56762;49.494;11.768;2024-01-16T03:25:59;-0.44;83.28
69543;SHT31;56762;49.494;11.768;2024-01-16T03:28:27;-0.36;83.38
69543;SHT31;56762;49.494;11.768;2024-01-16T03:30:55;-0.38;83.77
69543;SHT31;56762;49.494;11.768;2024-01-16T03:33:25;-0.34;83.57
69543;SHT31;56762;49.494;11.768;2024-01-16T03:35:53;-0.35;83.85
69543;SHT31;56762;49.494;11.768;2024-01-16T03:38:21;-0.29;83.45
69543;SHT31;56762;49.494;11.768;2024-01-16T03:40:48;-0.29;83.29
69543;SHT31;56762;49.494;11.768;2024-01-16T03:43:16;-0.26;83.19
69543;SHT31;56762;49.494;11.768;2024-01-16T03:45:44;-0.28;83.27
69543;SHT31;56762;49.494;11.768;2024-01-16T03:48:12;-0.32;82.99
69543;SHT31;56762;49.494;11.768;2024-01-16T03:50:41;-0.26;83.89
69543;SHT31;56762;49.494;11.768;2024-01-16T03:53:11;-0.26;83.25
69543;SHT31;56762;49.494;11.768;2024-01-16T03:55:39;-0.22;83.65
69543;SHT31;56762;49.494;11.768;2024-01-16T03:58:07;-0.19;83.80
69543;SHT31;56762;49.494;11.768;2024-01-16T04:00:39;-0.15;83.76
69543;SHT31;56762;49.494;11.768;2024-01-16T04:03:06;-0.11;82.70
69543;SHT31;56762;49.494;11.768;2024-01-16T04:05:36;-0.13;82.76
69543;SHT31;56762;49.494;11.768;2024-01-16T04:08:05;-0.08;83.69
69543;SHT31;56762;49.494;11.768;2024-01-16T04:10:33;-0.24;81.27
69543;SHT31;56762;49.494;11.768;2024-01-16T04:13:01;-0.35;82.40
69543;SHT31;56762;49.494;11.768;2024-01-16T04:15:29;-0.41;82.47
69543;SHT31;56762;49.494;11.768;2024-01-16T04:17:55;-0.39;83.05
69543;SHT31;56762;49.494;11.768;2024-01-16T04:20:24;-0.41;82.79
69543;SHT31;56762;49.494;11.768;2024-01-16T04:22:51;-0.39;83.39
69543;SHT31;56762;49.494;11.768;2024-01-16T04:25:20;-0.29;83.78
69543;SHT31;56762;49.494;11.768;2024-01-16T04:27:48;-0.24;82.52
69543;SHT31;56762;49.494;11.768;2024-01-16T04:30:17;-0.26;82.67
69543;SHT31;56762;49.494;11.768;2024-01-16T04:32:47;-0.22;83.17
69543;SHT31;56762;49.494;11.768;2024-01-16T04:35:15;-0.26;82.91
69543;SHT31;56762;49.494;11.768;2024-01-16T04:37:42;-0.26;82.13
69543;SHT31;56762;49.494;11.768;2024-01-16T04:40:11;-0.28;82.96
69543;SHT31;56762;49.494;11.768;2024-01-16T04:42:39;-0.31;82.46
69543;SHT31;56762;49.494;11.768;2024-01-16T04:45:09;-0.28;82.51
69543;SHT31;56762;49.494;11.768;2024-01-16T04:47:37;-0.26;83.22
69543;SHT31;56762;49.494;11.768;2024-01-16T04:50:05;-0.29;83.44
69543;SHT31;56762;49.494;11.768;2024-01-16T04:52:34;-0.28;83.44
69543;SHT31;56762;49.494;11.768;2024-01-16T04:55:03;-0.29;83.59
69543;SHT31;56762;49.494;11.768;2024-01-16T04:57:30;-0.31;83.35
69543;SHT31;56762;49.494;11.768;2024-01-16T05:00:00;-0.26;83.81
69543;SHT31;56762;49.494;11.768;2024-01-16T05:02:28;-0.29;83.37
69543;SHT31;56762;49.494;11.768;2024-01-16T05:04:55;-0.31;83.28
69543;SHT31;56762;49.494;11.768;2024-01-16T05:07:24;-0.28;83.52
69543;SHT31;56762;49.494;11.768;2024-01-16T05:09:51;-0.24;83.64
69543;SHT31;56762;49.494;11.768;2024-01-16T05:12:20;-0.28;82.88
69543;SHT31;56762;49.494;11.768;2024-01-16T05:14:49;-0.22;83.69
69543;SHT31;56762;49.494;11.768;2024-01-16T05:17:18;-0.19;83.77
69543;SHT31;56762;49.494;11.768;2024-01-16T05:19:46;-0.08;83.47
69543;SHT31;56762;49.494;11.768;2024-01-16T05:22:14;-0.15;82.95
69543;SHT31;56762;49.494;11.768;2024-01-16T05:24:41;-0.21;83.49
69543;SHT31;56762;49.494;11.768;2024-01-16T05:27:10;-0.19;83.12
69543;SHT31;56762;49.494;11.768;2024-01-16T05:29:37;-0.19;82.80
69543;SHT31;56762;49.494;11.768;2024-01-16T05:32:10;-0.18;83.04
69543;SHT31;56762;49.494;11.768;2024-01-16T05:34:40;-0.25;83.01
69543;SHT31;56762;49.494;11.768;2024-01-16T05:37:08;-0.26;83.32
69543;SHT31;56762;49.494;11.768;2024-01-16T05:39:35;-0.24;82.78
69543;SHT31;56762;49.494;11.768;2024-01-16T05:42:04;-0.24;82.56
69543;SHT31;56762;49.494;11.768;2024-01-16T05:44:32;-0.26;82.10
69543;SHT31;56762;49.494;11.768;2024-01-16T05:47:00;-0.19;83.47
69543;SHT31;56762;49.494;11.768;2024-01-16T05:49:28;-0.19;83.47
69543;SHT31;56762;49.494;11.768;2024-01-16T05:51:57;-0.19;83.07
69543;SHT31;56762;49.494;11.768;2024-01-16T05:54:25;-0.19;83.39
69543;SHT31;56762;49.494;11.768;2024-01-16T05:56:53;-0.17;83.15
69543;SHT31;56762;49.494;11.768;2024-01-16T05:59:21;-0.14;81.08
69543;SHT31;56762;49.494;11.768;2024-01-16T06:01:49;-0.21;82.43
69543;SHT31;56762;49.494;11.768;2024-01-16T06:04:17;-0.28;82.17
69543;SHT31;56762;49.494;11.768;2024-01-16T06:06:45;-0.31;82.75
69543;SHT31;56762;49.494;11.768;2024-01-16T06:09:16;-0.28;83.37
69543;SHT31;56762;49.494;11.768;2024-01-16T06:11:44;-0.32;82.28
69543;SHT31;56762;49.494;11.768;2024-01-16T06:14:13;-0.32;82.80
69543;SHT31;56762;49.494;11.768;2024-01-16T06:16:47;-0.26;83.40
69543;SHT31;56762;49.494;11.768;2024-01-16T06:19:15;-0.22;83.29
69543;SHT31;56762;49.494;11.768;2024-01-16T06:21:43;-0.24;83.99
69543;SHT31;56762;49.494;11.768;2024-01-16T06:24:11;-0.25;83.79
69543;SHT31;56762;49.494;11.768;2024-01-16T06:26:41;-0.29;84.01
69543;SHT31;56762;49.494;11.768;2024-01-16T06:29:09;-0.26;84.21
69543;SHT31;56762;49.494;11.768;2024-01-16T06:31:53;-0.25;84.01
69543;SHT31;56762;49.494;11.768;2024-01-16T06:34:21;-0.29;84.20
69543;SHT31;56762;49.494;11.768;2024-01-16T06:36:49;-0.28;84.15
69543;SHT31;56762;49.494;11.768;2024-01-16T06:39:17;-0.28;84.03
69543;SHT31;56762;49.494;11.768;2024-01-16T06:41:46;-0.26;84.03
69543;SHT31;56762;49.494;11.768;2024-01-16T06:44:14;-0.28;84.38
69543;SHT31;56762;49.494;11.768;2024-01-16T06:46:42;-0.31;83.68
69543;SHT31;56762;49.494;11.768;2024-01-16T06:49:10;-0.31;84.29
69543;SHT31;56762;49.494;11.768;2024-01-16T06:51:38;-0.28;83.42
69543;SHT31;56762;49.494;11.768;2024-01-16T06:54:05;-0.28;83.76
69543;SHT31;56762;49.494;11.768;2024-01-16T06:56:33;-0.29;83.33
69543;SHT31;56762;49.494;11.768;2024-01-16T06:59:03;-0.32;83.52
69543;SHT31;56762;49.494;11.768;2024-01-16T07:01:33;-0.32;83.67
69543;SHT31;56762;49.494;11.768;2024-01-16T07:04:01;-0.31;84.03
69543;SHT31;56762;49.494;11.768;2024-01-16T07:06:29;-0.22;84.14
69543;SHT31;56762;49.494;11.768;2024-01-16T07:08:57;-0.17;84.42
69543;SHT31;56762;49.494;11.768;2024-01-16T07:11:25;-0.13;83.75
69543;SHT31;56762;49.494;11.768;2024-01-16T07:13:53;0.00;84.24
69543;SHT31;56762;49.494;11.768;2024-01-16T07:16:22;0.03;83.16
69543;SHT31;56762;49.494;11.768;2024-01-16T07:18:50;0.05;83.04
69543;SHT31;56762;49.494;11.768;2024-01-16T07:21:18;0.07;83.58
69543;SHT31;56762;49.494;11.768;2024-01-16T07:23:47;0.14;83.10
69543;SHT31;56762;49.494;11.768;2024-01-16T07:26:15;0.20;83.02
69543;SHT31;56762;49.494;11.768;2024-01-16T07:28:43;0.18;82.71
69543;SHT31;56762;49.494;11.768;2024-01-16T07:31:11;0.13;82.48
69543;SHT31;56762;49.494;11.768;2024-01-16T07:33:40;0.10;81.82
69543;SHT31;56762;49.494;11.768;2024-01-16T07:36:09;0.05;82.08
69543;SHT31;56762;49.494;11.768;2024-01-16T07:38:37;0.03;83.12
69543;SHT31;56762;49.494;11.768;2024-01-16T07:41:05;-0.01;83.50
69543;SHT31;56762;49.494;11.768;2024-01-16T07:43:33;-0.03;82.92
69543;SHT31;56762;49.494;11.768;2024-01-16T07:46:02;0.00;83.60
69543;SHT31;56762;49.494;11.768;2024-01-16T07:48:30;0.11;84.02
69543;SHT31;56762;49.494;11.768;2024-01-16T07:50:59;0.20;83.03
69543;SHT31;56762;49.494;11.768;2024-01-16T07:53:27;0.23;82.98
69543;SHT31;56762;49.494;11.768;2024-01-16T07:55:54;0.16;82.26
69543;SHT31;56762;49.494;11.768;2024-01-16T07:58:22;0.13;82.62
69543;SHT31;56762;49.494;11.768;2024-01-16T08:00:50;0.18;83.50
69543;SHT31;56762;49.494;11.768;2024-01-16T08:03:18;0.11;82.22
69543;SHT31;56762;49.494;11.768;2024-01-16T08:05:46;0.18;82.92
69543;SHT31;56762;49.494;11.768;2024-01-16T08:08:15;0.17;82.01
69543;SHT31;56762;49.494;11.768;2024-01-16T08:10:43;0.10;82.59
69543;SHT31;56762;49.494;11.768;2024-01-16T08:13:11;0.11;82.64
69543;SHT31;56762;49.494;11.768;2024-01-16T08:15:39;0.05;81.58
69543;SHT31;56762;49.494;11.768;2024-01-16T08:18:07;0.11;83.22
69543;SHT31;56762;49.494;11.768;2024-01-16T08:20:35;0.16;82.56
69543;SHT31;56762;49.494;11.768;2024-01-16T08:23:03;0.20;82.12
69543;SHT31;56762;49.494;11.768;2024-01-16T08:25:32;0.24;82.29
69543;SHT31;56762;49.494;11.768;2024-01-16T08:28:00;0.28;81.95
69543;SHT31;56762;49.494;11.768;2024-01-16T08:30:28;0.30;82.07
69543;SHT31;56762;49.494;11.768;2024-01-16T08:32:56;0.33;82.26
69543;SHT31;56762;49.494;11.768;2024-01-16T08:35:24;0.30;81.93
69543;SHT31;56762;49.494;11.768;2024-01-16T08:37:52;0.33;82.11
69543;SHT31;56762;49.494;11.768;2024-01-16T08:40:20;0.40;82.46
69543;SHT31;56762;49.494;11.768;2024-01-16T08:42:49;0.41;81.86
69543;SHT31;56762;49.494;11.768;2024-01-16T08:45:23;0.46;82.11
69543;SHT31;56762;49.494;11.768;2024-01-16T08:47:53;0.54;81.52
69543;SHT31;56762;49.494;11.768;2024-01-16T08:50:21;0.54;81.75
69543;SHT31;56762;49.494;11.768;2024-01-16T08:52:49;0.47;80.90
69543;SHT31;56762;49.494;11.768;2024-01-16T08:55:17;0.50;81.22
69543;SHT31;56762;49.494;11.768;2024-01-16T08:57:45;0.60;80.98
69543;SHT31;56762;49.494;11.768;2024-01-16T09:00:15;0.64;81.05
69543;SHT31;56762;49.494;11.768;2024-01-16T09:02:43;0.67;80.89
69543;SHT31;56762;49.494;11.768;2024-01-16T09:05:11;0.68;80.29
69543;SHT31;56762;49.494;11.768;2024-01-16T09:07:40;0.75;80.93
69543;SHT31;56762;49.494;11.768;2024-01-16T09:10:08;0.79;80.69
69543;SHT31;56762;49.494;11.768;2024-01-16T09:12:36;0.87;80.27
69543;SHT31;56762;49.494;11.768;2024-01-16T09:15:05;0.84;79.10
69543;SHT31;56762;49.494;11.768;2024-01-16T09:17:34;0.91;80.12
69543;SHT31;56762;49.494;11.768;2024-01-16T09:20:02;0.99;80.82
69543;SHT31;56762;49.494;11.768;2024-01-16T09:22:30;0.95;80.06
69543;SHT31;56762;49.494;11.768;2024-01-16T09:24:58;0.93;79.41
69543;SHT31;56762;49.494;11.768;2024-01-16T09:27:26;0.91;79.10
69543;SHT31;56762;49.494;11.768;2024-01-16T09:29:53;0.85;79.10
69543;SHT31;56762;49.494;11.768;2024-01-16T09:32:22;0.84;79.43
69543;SHT31;56762;49.494;11.768;2024-01-16T09:34:51;0.91;79.74
69543;SHT31;56762;49.494;11.768;2024-01-16T09:37:19;0.93;79.76
69543;SHT31;56762;49.494;11.768;2024-01-16T09:39:47;1.06;79.77
69543;SHT31;56762;49.494;11.768;2024-01-16T09:42:15;1.10;79.38
69543;SHT31;56762;49.494;11.768;2024-01-16T09:44:43;1.18;79.11
69543;SHT31;56762;49.494;11.768;2024-01-16T09:47:11;1.25;78.69
69543;SHT31;56762;49.494;11.768;2024-01-16T09:49:41;1.30;78.81
69543;SHT31;56762;49.494;11.768;2024-01-16T09:52:11;1.36;79.28
69543;SHT31;56762;49.494;11.768;2024-01-16T09:54:39;1.33;77.66
69543;SHT31;56762;49.494;11.768;2024-01-16T09:57:07;1.28;79.08
69543;SHT31;56762;49.494;11.768;2024-01-16T09:59:36;1.25;77.78
69543;SHT31;56762;49.494;11.768;2024-01-16T10:02:07;1.28;78.84
69543;SHT31;56762;49.494;11.768;2024-01-16T10:04:36;1.28;77.84
69543;SHT31;56762;49.494;11.768;2024-01-16T10:07:04;1.32;78.68
69543;SHT31;56762;49.494;11.768;2024-01-16T10:09:34;1.40;78.76
69543;SHT31;56762;49.494;11.768;2024-01-16T10:12:02;1.40;78.05
69543;SHT31;56762;49.494;11.768;2024-01-16T10:14:31;1.39;78.14
69543;SHT31;56762;49.494;11.768;2024-01-16T10:17:00;1.49;77.70
69543;SHT31;56762;49.494;11.768;2024-01-16T10:19:33;1.49;77.58
69543;SHT31;56762;49.494;11.768;2024-01-16T10:22:19;1.56;78.41
69543;SHT31;56762;49.494;11.768;2024-01-16T10:25:04;1.59;78.21
69543;SHT31;56762;49.494;11.768;2024-01-16T10:27:32;1.59;77.96
69543;SHT31;56762;49.494;11.768;2024-01-16T10:30:00;1.64;78.31
69543;SHT31;56762;49.494;11.768;2024-01-16T10:32:30;1.66;77.64
69543;SHT31;56762;49.494;11.768;2024-01-16T10:35:03;1.73;77.72
69543;SHT31;56762;49.494;11.768;2024-01-16T10:37:40;1.71;77.01
69543;SHT31;56762;49.494;11.768;2024-01-16T10:40:14;1.70;76.90
69543;SHT31;56762;49.494;11.768;2024-01-16T10:42:42;1.81;77.56
69543;SHT31;56762;49.494;11.768;2024-01-16T10:45:16;1.81;76.97
69543;SHT31;56762;49.494;11.768;2024-01-16T10:47:45;1.91;78.21
69543;SHT31;56762;49.494;11.768;2024-01-16T10:50:14;1.99;77.83
69543;SHT31;56762;49.494;11.768;2024-01-16T10:52:46;1.94;77.03
69543;SHT31;56762;49.494;11.768;2024-01-16T10:55:20;1.94;76.98
69543;SHT31;56762;49.494;11.768;2024-01-16T10:57:49;1.98;77.45
69543;SHT31;56762;49.494;11.768;2024-01-16T11:00:19;1.97;76.66
69543;SHT31;56762;49.494;11.768;2024-01-16T11:02:51;1.95;77.26
69543;SHT31;56762;49.494;11.768;2024-01-16T11:05:22;2.05;77.08
69543;SHT31;56762;49.494;11.768;2024-01-16T11:07:54;2.12;76.04
69543;SHT31;56762;49.494;11.768;2024-01-16T11:10:25;2.14;76.18
69543;SHT31;56762;49.494;11.768;2024-01-16T11:12:55;2.15;76.83
69543;SHT31;56762;49.494;11.768;2024-01-16T11:15:24;2.19;77.01
69543;SHT31;56762;49.494;11.768;2024-01-16T11:17:52;2.17;75.88
69543;SHT31;56762;49.494;11.768;2024-01-16T11:20:21;2.18;75.92
69543;SHT31;56762;49.494;11.768;2024-01-16T11:23:11;2.09;75.09
69543;SHT31;56762;49.494;11.768;2024-01-16T11:25:40;2.09;76.74
69543;SHT31;56762;49.494;11.768;2024-01-16T11:28:09;2.07;77.17
69543;SHT31;56762;49.494;11.768;2024-01-16T11:30:38;1.97;75.90
69543;SHT31;56762;49.494;11.768;2024-01-16T11:33:06;1.97;77.55
69543;SHT31;56762;49.494;11.768;2024-01-16T11:35:35;1.97;76.75
69543;SHT31;56762;49.494;11.768;2024-01-16T11:38:06;1.93;76.81
69543;SHT31;56762;49.494;11.768;2024-01-16T11:40:35;1.98;76.20
69543;SHT31;56762;49.494;11.768;2024-01-16T11:43:37;1.97;76.11
69543;SHT31;56762;49.494;11.768;2024-01-16T11:46:05;2.01;77.09
69543;SHT31;56762;49.494;11.768;2024-01-16T11:48:34;1.94;76.69
69543;SHT31;56762;49.494;11.768;2024-01-16T11:51:22;1.95;77.11
69543;SHT31;56762;49.494;11.768;2024-01-16T11:53:50;1.99;76.18
69543;SHT31;56762;49.494;11.768;2024-01-16T11:56:48;1.97;75.44
69543;SHT31;56762;49.494;11.768;2024-01-16T11:59:54;1.91;77.01
69543;SHT31;56762;49.494;11.768;2024-01-16T12:02:29;1.84;77.67
69543;SHT31;56762;49.494;11.768;2024-01-16T12:05:01;1.80;77.33
69543;SHT31;56762;49.494;11.768;2024-01-16T12:07:43;1.81;76.75
69543;SHT31;56762;49.494;11.768;2024-01-16T12:10:11;1.81;77.03
69543;SHT31;56762;49.494;11.768;2024-01-16T12:12:39;1.78;77.57
69543;SHT31;56762;49.494;11.768;2024-01-16T12:15:14;1.85;77.58
69543;SHT31;56762;49.494;11.768;2024-01-16T12:17:57;1.90;77.68
69543;SHT31;56762;49.494;11.768;2024-01-16T12:20:26;1.85;75.68
69543;SHT31;56762;49.494;11.768;2024-01-16T12:22:57;1.84;77.11
69543;SHT31;56762;49.494;11.768;2024-01-16T12:25:25;1.88;76.47
69543;SHT31;56762;49.494;11.768;2024-01-16T12:28:13;1.90;76.42
69543;SHT31;56762;49.494;11.768;2024-01-16T12:30:59;1.90;76.76
69543;SHT31;56762;49.494;11.768;2024-01-16T12:33:28;1.80;76.88
69543;SHT31;56762;49.494;11.768;2024-01-16T12:36:01;1.75;76.44
69543;SHT31;56762;49.494;11.768;2024-01-16T12:38:32;1.75;76.72
69543;SHT31;56762;49.494;11.768;2024-01-16T12:41:00;1.75;77.54
69543;SHT31;56762;49.494;11.768;2024-01-16T12:43:31;1.78;77.48
69543;SHT31;56762;49.494;11.768;2024-01-16T12:46:01;1.82;76.81
69543;SHT31;56762;49.494;11.768;2024-01-16T12:48:29;1.82;76.24
69543;SHT31;56762;49.494;11.768;2024-01-16T12:51:00;1.84;76.38
69543;SHT31;56762;49.494;11.768;2024-01-16T12:53:31;1.94;77.03
69543;SHT31;56762;49.494;11.768;2024-01-16T12:56:01;2.05;76.96
69543;SHT31;56762;49.494;11.768;2024-01-16T12:58:34;2.11;76.03
69543;SHT31;56762;49.494;11.768;2024-01-16T13:01:25;2.08;75.33
69543;SHT31;56762;49.494;11.768;2024-01-16T13:04:05;2.07;76.23
69543;SHT31;56762;49.494;11.768;2024-01-16T13:06:34;2.04;75.76
69543;SHT31;56762;49.494;11.768;2024-01-16T13:09:07;2.01;74.36
69543;SHT31;56762;49.494;11.768;2024-01-16T13:11:48;1.90;75.39
69543;SHT31;56762;49.494;11.768;2024-01-16T13:14:16;1.90;76.28
69543;SHT31;56762;49.494;11.768;2024-01-16T13:16:46;1.87;77.27
69543;SHT31;56762;49.494;11.768;2024-01-16T13:19:16;1.88;76.59
69543;SHT31;56762;49.494;11.768;2024-01-16T13:21:45;1.84;76.34
69543;SHT31;56762;49.494;11.768;2024-01-16T13:24:13;1.91;76.44
69543;SHT31;56762;49.494;11.768;2024-01-16T13:26:41;1.90;77.66
69543;SHT31;56762;49.494;11.768;2024-01-16T13:29:10;1.78;76.29
69543;SHT31;56762;49.494;11.768;2024-01-16T13:31:38;1.78;76.56
69543;SHT31;56762;49.494;11.768;2024-01-16T13:34:08;1.68;76.01
69543;SHT31;56762;49.494;11.768;2024-01-16T13:36:36;1.67;76.97
69543;SHT31;56762;49.494;11.768;2024-01-16T13:39:24;1.63;76.28
69543;SHT31;56762;49.494;11.768;2024-01-16T13:41:52;1.66;77.09
69543;SHT31;56762;49.494;11.768;2024-01-16T13:44:20;1.66;77.25
69543;SHT31;56762;49.494;11.768;2024-01-16T13:46:48;1.73;76.89
69543;SHT31;56762;49.494;11.768;2024-01-16T13:49:32;1.73;76.45
69543;SHT31;56762;49.494;11.768;2024-01-16T13:52:01;1.70;77.18
69543;SHT31;56762;49.494;11.768;2024-01-16T13:54:29;1.68;77.08
69543;SHT31;56762;49.494;11.768;2024-01-16T13:56:57;1.64;77.53
69543;SHT31;56762;49.494;11.768;2024-01-16T13:59:34;1.61;76.98
69543;SHT31;56762;49.494;11.768;2024-01-16T14:02:02;1.57;76.90
69543;SHT31;56762;49.494;11.768;2024-01-16T14:04:32;1.50;76.24
69543;SHT31;56762;49.494;11.768;2024-01-16T14:07:00;1.46;77.60
69543;SHT31;56762;49.494;11.768;2024-01-16T14:09:39;1.40;77.61
69543;SHT31;56762;49.494;11.768;2024-01-16T14:12:11;1.25;77.52
69543;SHT31;56762;49.494;11.768;2024-01-16T14:14:41;1.12;77.28
69543;SHT31;56762;49.494;11.768;2024-01-16T14:17:09;0.92;75.35
69543;SHT31;56762;49.494;11.768;2024-01-16T14:19:38;0.88;77.54
69543;SHT31;56762;49.494;11.768;2024-01-16T14:22:07;0.68;78.84
69543;SHT31;56762;49.494;11.768;2024-01-16T14:24:34;0.56;79.41
69543;SHT31;56762;49.494;11.768;2024-01-16T14:27:04;0.43;79.89
69543;SHT31;56762;49.494;11.768;2024-01-16T14:29:34;0.34;80.72
69543;SHT31;56762;49.494;11.768;2024-01-16T14:32:03;0.20;80.57
69543;SHT31;56762;49.494;11.768;2024-01-16T14:34:32;0.11;80.00
69543;SHT31;56762;49.494;11.768;2024-01-16T14:37:01;0.02;80.17
69543;SHT31;56762;49.494;11.768;2024-01-16T14:39:30;-0.08;80.35
69543;SHT31;56762;49.494;11.768;2024-01-16T14:41:58;-0.15;80.47
69543;SHT31;56762;49.494;11.768;2024-01-16T14:44:26;-0.19;81.53
69543;SHT31;56762;49.494;11.768;2024-01-16T14:46:55;-0.28;81.52
69543;SHT31;56762;49.494;11.768;2024-01-16T14:49:23;-0.31;81.65
69543;SHT31;56762;49.494;11.768;2024-01-16T14:51:50;-0.34;81.92
69543;SHT31;56762;49.494;11.768;2024-01-16T14:54:20;-0.42;81.87
69543;SHT31;56762;49.494;11.768;2024-01-16T14:56:48;-0.51;81.95
69543;SHT31;56762;49.494;11.768;2024-01-16T14:59:16;-0.52;81.01
69543;SHT31;56762;49.494;11.768;2024-01-16T15:01:44;-0.55;81.56
69543;SHT31;56762;49.494;11.768;2024-01-16T15:04:12;-0.55;81.68
69543;SHT31;56762;49.494;11.768;2024-01-16T15:06:40;-0.53;82.01
69543;SHT31;56762;49.494;11.768;2024-01-16T15:09:08;-0.53;82.87
69543;SHT31;56762;49.494;11.768;2024-01-16T15:11:42;-0.53;81.59
69543;SHT31;56762;49.494;11.768;2024-01-16T15:14:14;-0.48;81.73
69543;SHT31;56762;49.494;11.768;2024-01-16T15:16:44;-0.46;82.56
69543;SHT31;56762;49.494;11.768;2024-01-16T15:19:12;-0.45;80.76
69543;SHT31;56762;49.494;11.768;2024-01-16T15:21:42;-0.41;82.49
69543;SHT31;56762;49.494;11.768;2024-01-16T15:24:12;-0.36;82.25
69543;SHT31;56762;49.494;11.768;2024-01-16T15:26:46;-0.35;82.88
69543;SHT31;56762;49.494;11.768;2024-01-16T15:29:14;-0.31;82.21
69543;SHT31;56762;49.494;11.768;2024-01-16T15:31:42;-0.35;81.15
69543;SHT31;56762;49.494;11.768;2024-01-16T15:34:09;-0.34;81.08
69543;SHT31;56762;49.494;11.768;2024-01-16T15:36:42;-0.34;81.17